createdAt,value
2023-02-03T00:04:25.509Z,-1.15
2023-02-03T00:09:33.244Z,-1.17
2023-02-03T00:14:39.608Z,-1.23
2023-02-03T00:19:45.767Z,-1.26
2023-02-03T00:24:54.271Z,-1.24
2023-02-03T00:30:00.436Z,-1.26
2023-02-03T00:35:11.811Z,-1.32
2023-02-03T00:40:18.771Z,-1.37
2023-02-03T00:45:28.166Z,-1.38
2023-02-03T00:50:35.651Z,-1.42
2023-02-03T00:55:42.833Z,-1.52
2023-02-03T01:00:50.047Z,-1.59
2023-02-03T01:06:07.916Z,-1.63
2023-02-03T01:11:17.557Z,-1.69
2023-02-03T01:16:28.599Z,-1.77
2023-02-03T01:21:36.432Z,-1.80
2023-02-03T01:26:43.005Z,-1.80
2023-02-03T01:31:49.717Z,-1.79
2023-02-03T01:36:56.487Z,-1.80
2023-02-03T01:42:03.324Z,-1.71
2023-02-03T01:47:23.508Z,-1.56
2023-02-03T01:52:31.867Z,-1.40
2023-02-03T01:57:42.863Z,-1.26
2023-02-03T02:02:50.967Z,-1.09
2023-02-03T02:08:00.771Z,-0.95
2023-02-03T02:13:08.862Z,-0.88
2023-02-03T02:18:31.535Z,-0.86
2023-02-03T02:24:09.099Z,-0.82
2023-02-03T02:29:47.794Z,-0.79
2023-02-03T02:35:04.857Z,-0.85
2023-02-03T02:40:22.043Z,-1.03
2023-02-03T02:45:32.435Z,-1.20
2023-02-03T02:50:44.059Z,-1.30
2023-02-03T02:55:52.125Z,-1.34
2023-02-03T03:01:01.987Z,-1.43
2023-02-03T03:06:13.102Z,-1.57
2023-02-03T03:11:21.847Z,-1.74
2023-02-03T03:16:33.944Z,-1.91
2023-02-03T03:21:44.814Z,-2.07
2023-02-03T03:26:56.246Z,-2.19
2023-02-03T03:32:03.412Z,-2.20
2023-02-03T03:37:19.069Z,-2.22
2023-02-03T03:42:31.746Z,-2.27
2023-02-03T03:47:42.982Z,-2.34
2023-02-03T03:52:52.336Z,-2.45
2023-02-03T03:58:02.652Z,-2.50
2023-02-03T04:03:14.624Z,-2.49
2023-02-03T04:08:21.791Z,-2.48
2023-02-03T04:13:28.802Z,-2.51
2023-02-03T04:18:34.942Z,-2.58
2023-02-03T04:23:41.364Z,-2.68
2023-02-03T04:28:47.806Z,-2.77
2023-02-03T04:33:54.382Z,-2.78
2023-02-03T04:39:00.548Z,-2.72
2023-02-03T04:44:06.774Z,-2.73
2023-02-03T04:49:13.540Z,-2.79
2023-02-03T04:54:20.683Z,-2.62
2023-02-03T04:59:28.056Z,-2.81
2023-02-03T05:04:35.484Z,-2.90
2023-02-03T05:09:41.972Z,-2.90
2023-02-03T05:14:48.921Z,-2.93
2023-02-03T05:19:55.009Z,-3.01
2023-02-03T05:25:01.664Z,-3.13
2023-02-03T05:30:10.162Z,-3.20
2023-02-03T05:35:18.007Z,-3.17
2023-02-03T05:40:43.655Z,-3.09
2023-02-03T05:45:51.027Z,-3.06
2023-02-03T05:50:58.911Z,-3.09
2023-02-03T05:56:05.769Z,-3.14
2023-02-03T06:01:13.052Z,-3.17
2023-02-03T06:06:20.535Z,-3.15
2023-02-03T06:11:26.962Z,-3.05
2023-02-03T06:16:34.446Z,-2.96
2023-02-03T06:21:40.333Z,-2.94
2023-02-03T06:26:45.939Z,-2.96
2023-02-03T06:31:51.973Z,-2.92
2023-02-03T06:36:57.834Z,-2.80
2023-02-03T06:42:03.499Z,-2.67
2023-02-03T06:47:09.201Z,-2.55
2023-02-03T06:52:15.649Z,-2.44
2023-02-03T06:57:21.545Z,-2.29
2023-02-03T07:02:27.269Z,-2.10
2023-02-03T07:07:34.063Z,-1.86
2023-02-03T07:12:39.746Z,-1.58
2023-02-03T07:17:51.467Z,-1.35
2023-02-03T07:22:58.584Z,-0.89
2023-02-03T07:28:04.515Z,-0.34
2023-02-03T07:33:10.146Z,-0.12
2023-02-03T07:38:15.860Z,0.07
2023-02-03T07:43:21.698Z,0.27
2023-02-03T07:48:27.561Z,0.41
2023-02-03T07:53:33.826Z,0.50
2023-02-03T07:58:39.701Z,0.56
2023-02-03T08:03:45.380Z,0.72
2023-02-03T08:08:50.924Z,1.20
2023-02-03T08:13:56.641Z,2.06
2023-02-03T08:19:02.567Z,2.81
2023-02-03T08:24:10.674Z,2.89
2023-02-03T08:29:16.321Z,3.06
2023-02-03T08:34:22.006Z,3.12
2023-02-03T08:39:28.282Z,3.03
2023-02-03T08:44:34.975Z,2.90
2023-02-03T08:49:41.221Z,2.87
2023-02-03T08:54:47.091Z,2.91
2023-02-03T08:59:52.693Z,2.86
2023-02-03T09:04:58.550Z,2.72
2023-02-03T09:10:05.067Z,2.67
2023-02-03T09:15:11.853Z,2.87
2023-02-03T09:20:19.359Z,3.11
2023-02-03T09:25:25.053Z,3.34
2023-02-03T09:30:31.465Z,3.49
2023-02-03T09:35:37.689Z,3.73
2023-02-03T09:40:43.495Z,4.03
2023-02-03T09:45:50.413Z,4.28
2023-02-03T09:50:56.283Z,4.31
2023-02-03T09:56:02.423Z,4.29
2023-02-03T10:01:13.972Z,4.33
2023-02-03T10:06:31.178Z,4.71
2023-02-03T10:11:53.211Z,5.26
2023-02-03T10:17:14.406Z,5.48
2023-02-03T10:22:26.051Z,5.34
2023-02-03T10:27:35.274Z,5.48
2023-02-03T10:32:40.970Z,5.13
2023-02-03T10:37:50.751Z,4.66
2023-02-03T10:43:15.686Z,4.33
2023-02-03T10:48:22.308Z,4.04
2023-02-03T10:53:34.768Z,3.83
2023-02-03T10:58:49.355Z,3.62
2023-02-03T11:04:01.368Z,3.62
2023-02-03T11:09:29.168Z,3.80
2023-02-03T11:14:40.826Z,3.99
2023-02-03T11:19:48.554Z,3.96
2023-02-03T11:24:54.664Z,3.76
2023-02-03T11:30:16.455Z,3.40
2023-02-03T11:35:24.517Z,3.13
2023-02-03T11:40:32.616Z,2.84
2023-02-03T11:45:42.065Z,2.66
2023-02-03T11:50:51.560Z,2.54
2023-02-03T11:56:09.717Z,2.40
2023-02-03T12:01:27.253Z,2.23
2023-02-03T12:06:59.818Z,2.04
2023-02-03T12:12:41.441Z,1.90
2023-02-03T12:17:57.058Z,1.74
2023-02-03T12:23:14.258Z,1.70
2023-02-03T12:28:34.414Z,1.76
2023-02-03T12:33:46.478Z,1.75
2023-02-03T12:38:56.039Z,1.66
2023-02-03T12:44:12.265Z,1.59
2023-02-03T12:49:31.481Z,1.58
2023-02-03T12:54:45.597Z,1.51
2023-02-03T13:00:10.609Z,1.45
2023-02-03T13:05:23.926Z,1.36
2023-02-03T13:10:33.977Z,1.26
2023-02-03T13:15:44.537Z,1.22
2023-02-03T13:20:50.406Z,1.19
2023-02-03T13:26:20.832Z,1.16
2023-02-03T13:31:41.203Z,1.10
2023-02-03T13:37:11.371Z,1.00
2023-02-03T13:42:25.510Z,0.85
2023-02-03T13:47:33.673Z,0.65
2023-02-03T13:52:56.871Z,0.43
2023-02-03T13:58:04.312Z,0.18
2023-02-03T14:03:37.594Z,0.01
2023-02-03T14:08:52.507Z,-0.11
2023-02-03T14:14:21.149Z,-0.22
2023-02-03T14:19:56.434Z,-0.33
2023-02-03T14:25:07.950Z,-0.40
2023-02-03T14:30:19.368Z,-0.46
2023-02-03T14:35:31.540Z,-0.58
2023-02-03T14:40:48.432Z,-0.69
2023-02-03T14:46:10.342Z,-0.77
2023-02-03T14:51:27.648Z,-0.81
2023-02-03T14:57:24.537Z,-0.86
2023-02-03T15:02:31.992Z,-0.88
2023-02-03T15:07:44.741Z,-0.91
2023-02-03T15:12:52.042Z,-0.95
2023-02-03T15:18:00.171Z,-0.98
2023-02-03T15:23:22.127Z,-1.04
2023-02-03T15:28:29.327Z,-1.08
2023-02-03T15:33:38.553Z,-1.13
2023-02-03T15:38:48.821Z,-1.12
2023-02-03T15:43:59.133Z,-1.10
2023-02-03T15:49:09.387Z,-1.12
2023-02-03T15:54:24.374Z,-1.15
2023-02-03T15:59:35.197Z,-1.16
2023-02-03T16:04:41.067Z,-1.16
2023-02-03T16:09:47.166Z,-1.17
2023-02-03T16:14:54.836Z,-1.19
2023-02-03T16:20:24.111Z,-1.19
2023-02-03T16:25:32.467Z,-1.16
2023-02-03T16:30:57.766Z,-1.14
2023-02-03T16:36:32.038Z,-1.14
2023-02-03T16:41:56.971Z,-1.15
2023-02-03T16:47:21.734Z,-1.17
2023-02-03T16:52:27.588Z,-1.15
2023-02-03T16:57:33.288Z,-1.11
2023-02-03T17:02:38.829Z,-1.09
2023-02-03T17:07:50.378Z,-1.02
2023-02-03T17:12:56.025Z,-0.99
2023-02-03T17:18:01.636Z,-0.99
2023-02-03T17:23:07.344Z,-0.96
2023-02-03T17:28:14.025Z,-0.92
2023-02-03T17:33:19.887Z,-0.92
2023-02-03T17:38:25.625Z,-0.89
2023-02-03T17:54:42.374Z,-0.84
2023-02-03T17:59:48.519Z,-0.79
2023-02-03T18:05:04.164Z,-0.81
2023-02-03T18:10:11.566Z,-0.82
2023-02-03T18:15:17.524Z,-0.83
2023-02-03T18:20:23.328Z,-0.83
2023-02-03T18:25:28.935Z,-0.79
2023-02-03T18:30:34.862Z,-0.75
2023-02-03T18:35:41.129Z,-0.75
2023-02-03T18:40:47.100Z,-0.74
2023-02-03T18:45:53.141Z,-0.72
2023-02-03T18:50:58.878Z,-0.75
2023-02-03T18:56:07.863Z,-0.73
2023-02-03T19:01:22.475Z,-0.71
2023-02-03T19:06:30.597Z,-0.74
2023-02-03T19:11:38.210Z,-0.77
2023-02-03T19:16:44.153Z,-0.76
2023-02-03T19:21:49.942Z,-0.76
2023-02-03T19:26:55.834Z,-0.75
2023-02-03T19:32:01.755Z,-0.70
2023-02-03T19:37:08.646Z,-0.67
2023-02-03T19:42:14.212Z,-0.70
2023-02-03T19:47:19.890Z,-0.68
2023-02-03T19:52:25.832Z,-0.67
2023-02-03T19:57:31.412Z,-0.72
2023-02-03T20:02:37.319Z,-0.73
2023-02-03T20:07:43.256Z,-0.75
2023-02-03T20:12:50.124Z,-0.76
2023-02-03T20:17:55.933Z,-0.75
2023-02-03T20:23:01.867Z,-0.73
2023-02-03T20:28:07.677Z,-0.76
2023-02-03T20:33:14.623Z,-0.79
2023-02-03T20:38:20.658Z,-0.81
2023-02-03T20:43:27.683Z,-0.83
2023-02-03T20:48:33.566Z,-0.83
2023-02-03T20:53:39.808Z,-0.85
2023-02-03T20:58:45.764Z,-0.87
2023-02-03T21:04:11.830Z,-0.91
2023-02-03T21:09:21.132Z,-0.96
2023-02-03T21:14:34.893Z,-0.97
2023-02-03T21:19:41.473Z,-0.94
2023-02-03T21:24:54.102Z,-0.96
2023-02-03T21:30:01.833Z,-0.96
2023-02-03T21:35:24.349Z,-0.94
2023-02-03T21:40:31.644Z,-0.98
2023-02-03T21:45:42.059Z,-1.03
2023-02-03T21:50:48.360Z,-1.11
2023-02-03T21:55:54.250Z,-1.16
2023-02-03T22:01:02.182Z,-1.17
2023-02-03T22:06:19.223Z,-1.20
2023-02-03T22:11:27.385Z,-1.21
2023-02-03T22:16:33.084Z,-1.22
2023-02-03T22:21:39.211Z,-1.24
2023-02-03T22:26:44.878Z,-1.26
2023-02-03T22:31:50.990Z,-1.24
2023-02-03T22:36:57.116Z,-1.24
2023-02-03T22:42:03.019Z,-1.27
2023-02-03T22:47:08.656Z,-1.28
2023-02-03T22:52:14.780Z,-1.29
2023-02-03T22:57:20.403Z,-1.34
2023-02-03T23:02:26.447Z,-1.38
2023-02-03T23:07:33.212Z,-1.41
2023-02-03T23:12:38.843Z,-1.46
2023-02-03T23:17:45.690Z,-1.49
2023-02-03T23:22:51.820Z,-1.51
2023-02-03T23:28:01.670Z,-1.57
2023-02-03T23:43:18.837Z,-1.57
2023-02-03T23:48:25.390Z,-1.63
2023-02-03T23:53:31.691Z,-1.65
2023-02-03T23:58:38.141Z,-1.69
